createdAt,value
2023-04-18T00:03:10.612Z,100.00
2023-04-18T00:05:37.936Z,100.00
2023-04-18T00:08:05.700Z,99.49
2023-04-18T00:10:32.798Z,97.99
2023-04-18T00:13:00.447Z,95.75
2023-04-18T00:15:29.165Z,93.97
2023-04-18T00:17:57.999Z,92.34
2023-04-18T00:20:26.305Z,91.15
2023-04-18T00:22:53.424Z,89.88
2023-04-18T00:25:20.004Z,88.56
2023-04-18T00:27:46.735Z,86.65
2023-04-18T00:30:13.670Z,84.39
2023-04-18T00:32:47.703Z,81.72
2023-04-18T00:35:14.186Z,80.07
2023-04-18T00:37:40.648Z,79.38
2023-04-18T00:40:07.699Z,78.03
2023-04-18T00:42:43.732Z,77.52
2023-04-18T00:45:10.599Z,76.60
2023-04-18T00:47:37.224Z,76.19
2023-04-18T00:50:04.073Z,74.80
2023-04-18T00:52:58.349Z,73.99
2023-04-18T00:55:24.963Z,74.19
2023-04-18T00:57:52.058Z,73.56
2023-04-18T01:00:18.938Z,72.96
2023-04-18T01:02:54.120Z,73.12
2023-04-18T01:05:21.515Z,73.27
2023-04-18T01:07:48.800Z,73.80
2023-04-18T01:10:15.474Z,74.39
2023-04-18T01:12:49.842Z,74.87
2023-04-18T01:15:16.297Z,75.13
2023-04-18T01:17:43.616Z,75.56
2023-04-18T01:20:10.408Z,75.73
2023-04-18T01:22:41.301Z,75.28
2023-04-18T01:25:08.911Z,75.40
2023-04-18T01:27:35.627Z,75.51
2023-04-18T01:30:02.329Z,75.06
2023-04-18T01:32:36.230Z,74.43
2023-04-18T01:35:02.857Z,74.26
2023-04-18T01:37:31.739Z,73.88
2023-04-18T01:39:58.435Z,73.86
2023-04-18T01:42:26.142Z,73.70
2023-04-18T01:44:52.563Z,73.26
2023-04-18T01:47:19.080Z,73.38
2023-04-18T01:49:48.155Z,73.24
2023-04-18T01:52:28.052Z,72.97
2023-04-18T01:54:54.523Z,72.64
2023-04-18T01:57:21.046Z,72.81
2023-04-18T01:59:47.468Z,72.82
2023-04-18T02:02:14.210Z,73.03
2023-04-18T02:04:40.855Z,72.88
2023-04-18T02:07:07.279Z,72.76
2023-04-18T02:09:33.695Z,72.93
2023-04-18T02:12:02.539Z,72.59
2023-04-18T02:14:32.202Z,73.01
2023-04-18T02:16:59.657Z,73.14
2023-04-18T02:19:26.147Z,73.09
2023-04-18T02:21:53.056Z,73.06
2023-04-18T02:24:19.399Z,73.10
2023-04-18T02:26:45.869Z,73.34
2023-04-18T02:29:12.456Z,73.26
2023-04-18T02:31:42.032Z,73.25
2023-04-18T02:34:08.662Z,73.29
2023-04-18T02:36:35.208Z,73.23
2023-04-18T02:39:01.788Z,73.45
2023-04-18T02:41:28.396Z,73.40
2023-04-18T02:44:10.398Z,73.90
2023-04-18T02:46:36.759Z,73.50
2023-04-18T02:49:03.422Z,73.64
2023-04-18T02:51:29.852Z,74.16
2023-04-18T02:54:00.509Z,74.21
2023-04-18T02:56:26.977Z,74.13
2023-04-18T02:58:53.512Z,74.50
2023-04-18T03:01:19.975Z,74.69
2023-04-18T03:03:59.937Z,74.70
2023-04-18T03:06:27.212Z,74.63
2023-04-18T03:08:55.206Z,74.52
2023-04-18T03:11:22.523Z,74.76
2023-04-18T03:14:01.562Z,74.41
2023-04-18T03:16:28.234Z,74.55
2023-04-18T03:18:54.604Z,74.72
2023-04-18T03:21:20.919Z,74.62
2023-04-18T03:23:49.650Z,74.76
2023-04-18T03:26:16.160Z,74.89
2023-04-18T03:28:42.606Z,74.78
2023-04-18T03:31:09.183Z,74.67
2023-04-18T03:33:39.316Z,75.04
2023-04-18T03:36:06.270Z,74.89
2023-04-18T03:38:32.708Z,74.97
2023-04-18T03:40:59.120Z,75.00
2023-04-18T03:43:58.858Z,75.01
2023-04-18T03:46:25.327Z,75.07
2023-04-18T03:48:51.849Z,75.41
2023-04-18T03:51:18.465Z,75.17
2023-04-18T03:54:01.548Z,75.35
2023-04-18T03:56:28.017Z,75.58
2023-04-18T03:58:54.391Z,75.68
2023-04-18T04:01:21.635Z,75.77
2023-04-18T04:04:12.199Z,76.25
2023-04-18T04:06:39.213Z,76.26
2023-04-18T04:09:05.638Z,76.55
2023-04-18T04:11:32.050Z,76.65
2023-04-18T04:13:58.506Z,76.54
2023-04-18T04:16:25.075Z,76.93
2023-04-18T04:18:51.533Z,77.00
2023-04-18T04:21:20.081Z,76.65
2023-04-18T04:23:49.912Z,76.80
2023-04-18T04:26:16.678Z,76.84
2023-04-18T04:28:43.509Z,76.77
2023-04-18T04:31:10.469Z,76.68
2023-04-18T04:33:46.588Z,77.05
2023-04-18T04:36:16.716Z,76.65
2023-04-18T04:38:45.005Z,76.79
2023-04-18T04:41:11.762Z,76.57
2023-04-18T04:43:52.346Z,76.83
2023-04-18T04:46:20.281Z,77.16
2023-04-18T04:48:46.950Z,76.97
2023-04-18T04:51:13.332Z,77.16
2023-04-18T04:54:11.229Z,77.06
2023-04-18T04:56:38.029Z,77.39
2023-04-18T04:59:04.486Z,77.47
2023-04-18T05:01:30.972Z,77.42
2023-04-18T05:03:57.722Z,77.32
2023-04-18T05:06:24.668Z,77.68
2023-04-18T05:08:51.386Z,77.33
2023-04-18T05:11:18.172Z,77.57
2023-04-18T05:13:46.027Z,77.88
2023-04-18T05:16:12.472Z,77.79
2023-04-18T05:18:40.374Z,78.19
2023-04-18T05:21:07.502Z,78.50
2023-04-18T05:23:40.465Z,78.43
2023-04-18T05:26:07.081Z,78.25
2023-04-18T05:28:33.509Z,78.29
2023-04-18T05:31:02.845Z,78.48
2023-04-18T05:33:31.277Z,78.31
2023-04-18T05:35:58.550Z,78.42
2023-04-18T05:38:25.534Z,78.65
2023-04-18T05:40:52.064Z,78.90
2023-04-18T05:43:23.336Z,78.65
2023-04-18T05:45:52.039Z,79.15
2023-04-18T05:48:18.768Z,79.27
2023-04-18T05:50:45.820Z,79.28
2023-04-18T05:53:17.541Z,79.08
2023-04-18T05:55:46.429Z,79.42
2023-04-18T05:58:13.058Z,79.33
2023-04-18T06:00:39.518Z,79.54
2023-04-18T06:03:16.944Z,79.36
2023-04-18T06:05:43.894Z,79.53
2023-04-18T06:08:10.393Z,79.84
2023-04-18T06:10:38.994Z,79.49
2023-04-18T06:13:10.142Z,79.39
2023-04-18T06:15:36.612Z,79.61
2023-04-18T06:18:03.164Z,79.55
2023-04-18T06:20:29.669Z,79.67
2023-04-18T06:23:19.354Z,79.36
2023-04-18T06:25:45.879Z,79.63
2023-04-18T06:28:12.329Z,79.70
2023-04-18T06:30:38.705Z,79.61
2023-04-18T06:33:10.328Z,79.38
2023-04-18T06:35:36.902Z,79.20
2023-04-18T06:38:03.660Z,78.96
2023-04-18T06:40:30.158Z,79.13
2023-04-18T06:42:59.082Z,79.04
2023-04-18T06:45:25.702Z,79.01
2023-04-18T06:47:53.127Z,79.22
2023-04-18T06:50:19.664Z,78.07
2023-04-18T06:52:48.280Z,77.83
2023-04-18T06:55:14.827Z,78.02
2023-04-18T06:57:42.480Z,77.73
2023-04-18T07:00:10.335Z,77.53
2023-04-18T07:02:38.627Z,77.54
2023-04-18T07:05:06.226Z,77.43
2023-04-18T07:07:33.585Z,77.47
2023-04-18T07:10:00.625Z,77.41
2023-04-18T07:12:34.254Z,76.99
2023-04-18T07:15:00.852Z,76.95
2023-04-18T07:17:27.381Z,77.01
2023-04-18T07:19:54.047Z,77.04
2023-04-18T07:22:21.630Z,76.90
2023-04-18T07:24:48.031Z,76.75
2023-04-18T07:27:15.238Z,76.86
2023-04-18T07:29:41.679Z,76.55
2023-04-18T07:32:08.771Z,76.77
2023-04-18T07:34:36.328Z,76.11
2023-04-18T07:37:03.588Z,76.15
2023-04-18T07:39:31.896Z,76.70
2023-04-18T07:41:58.896Z,76.19
2023-04-18T07:44:25.433Z,76.26
2023-04-18T07:46:52.208Z,76.18
2023-04-18T07:49:18.864Z,75.79
2023-04-18T07:51:45.405Z,75.70
2023-04-18T07:54:11.843Z,74.79
2023-04-18T07:56:38.414Z,74.30
2023-04-18T07:59:05.157Z,74.31
2023-04-18T08:01:31.813Z,74.03
2023-04-18T08:04:01.770Z,73.83
2023-04-18T08:06:29.101Z,73.65
2023-04-18T08:08:55.744Z,73.84
2023-04-18T08:11:22.281Z,73.35
2023-04-18T08:13:48.976Z,72.89
2023-04-18T08:16:17.518Z,72.15
2023-04-18T08:18:44.441Z,72.24
2023-04-18T08:21:11.013Z,72.21
2023-04-18T08:23:37.749Z,72.17
2023-04-18T08:26:04.367Z,71.85
2023-04-18T08:28:31.045Z,71.49
2023-04-18T08:30:57.540Z,70.83
2023-04-18T08:33:24.585Z,70.71
2023-04-18T08:35:51.559Z,70.43
2023-04-18T08:38:19.180Z,69.44
2023-04-18T08:40:46.425Z,69.59
2023-04-18T08:43:15.039Z,69.06
2023-04-18T08:45:45.823Z,68.68
2023-04-18T08:48:16.257Z,68.95
2023-04-18T08:50:44.038Z,69.16
2023-04-18T08:53:11.109Z,69.31
2023-04-18T08:55:37.777Z,69.12
2023-04-18T08:58:07.032Z,69.88
2023-04-18T09:00:34.177Z,69.41
2023-04-18T09:03:03.790Z,68.93
2023-04-18T09:05:30.699Z,68.27
2023-04-18T09:07:57.424Z,68.63
2023-04-18T09:10:29.525Z,68.27
2023-04-18T09:12:57.684Z,67.73
2023-04-18T09:15:27.268Z,67.44
2023-04-18T09:17:56.356Z,67.51
2023-04-18T09:20:43.988Z,67.17
2023-04-18T09:23:14.844Z,66.77
2023-04-18T09:25:44.550Z,66.72
2023-04-18T09:28:29.093Z,64.91
2023-04-18T09:30:58.120Z,65.57
2023-04-18T09:33:32.654Z,65.36
2023-04-18T09:36:22.116Z,65.79
2023-04-18T09:38:49.366Z,66.08
2023-04-18T09:41:19.938Z,66.49
2023-04-18T09:43:47.994Z,66.79
2023-04-18T09:46:17.516Z,66.42
2023-04-18T09:48:44.514Z,65.78
2023-04-18T09:51:14.888Z,65.31
2023-04-18T09:53:45.089Z,64.59
2023-04-18T09:56:26.125Z,64.75
2023-04-18T09:58:57.151Z,64.22
2023-04-18T10:01:28.431Z,63.83
2023-04-18T10:03:57.204Z,63.86
2023-04-18T10:06:27.350Z,63.34
2023-04-18T10:08:54.783Z,63.05
2023-04-18T10:11:22.035Z,62.98
2023-04-18T10:13:53.688Z,62.87
2023-04-18T10:16:20.851Z,62.82
2023-04-18T10:18:49.467Z,63.41
2023-04-18T10:21:16.009Z,62.57
2023-04-18T10:23:42.636Z,62.72
2023-04-18T10:26:10.549Z,63.08
2023-04-18T10:28:57.384Z,63.24
2023-04-18T10:31:28.988Z,62.27
2023-04-18T10:34:05.202Z,61.80
2023-04-18T10:36:32.608Z,62.39
2023-04-18T10:39:21.397Z,62.63
2023-04-18T10:41:51.707Z,61.75
2023-04-18T10:44:23.220Z,61.63
2023-04-18T10:46:53.284Z,61.05
2023-04-18T10:49:28.957Z,60.78
2023-04-18T10:52:01.148Z,60.64
2023-04-18T10:54:37.694Z,59.44
2023-04-18T10:57:05.585Z,59.74
2023-04-18T10:59:33.715Z,58.51
2023-04-18T11:02:06.387Z,57.80
2023-04-18T11:04:32.990Z,57.97
2023-04-18T11:06:59.831Z,57.66
2023-04-18T11:09:26.480Z,57.82
2023-04-18T11:12:08.595Z,58.57
2023-04-18T11:14:45.542Z,58.46
2023-04-18T11:17:28.397Z,58.91
2023-04-18T11:20:15.823Z,59.45
2023-04-18T11:22:55.523Z,59.31
2023-04-18T11:25:29.028Z,59.29
2023-04-18T11:27:59.333Z,59.20
2023-04-18T11:30:26.053Z,59.55
2023-04-18T11:32:54.140Z,59.12
2023-04-18T11:35:20.780Z,59.43
2023-04-18T11:37:49.865Z,60.00
2023-04-18T11:40:16.568Z,60.59
2023-04-18T11:42:43.235Z,60.69
2023-04-18T11:45:14.512Z,61.09
2023-04-18T11:47:46.550Z,60.80
2023-04-18T11:50:13.992Z,60.55
2023-04-18T11:52:42.645Z,60.40
2023-04-18T11:55:24.899Z,60.19
2023-04-18T11:57:59.147Z,60.16
2023-04-18T12:00:35.173Z,60.17
2023-04-18T12:03:04.984Z,61.05
2023-04-18T12:05:33.672Z,60.85
2023-04-18T12:08:11.463Z,61.00
2023-04-18T12:10:45.082Z,61.26
2023-04-18T12:13:11.781Z,60.78
2023-04-18T12:15:40.603Z,60.76
2023-04-18T12:18:10.040Z,60.09
2023-04-18T12:20:37.762Z,59.64
2023-04-18T12:23:04.980Z,59.84
2023-04-18T12:25:31.920Z,58.89
2023-04-18T12:28:03.936Z,59.42
2023-04-18T12:30:33.363Z,59.87
2023-04-18T12:33:02.542Z,59.25
2023-04-18T12:35:30.592Z,59.38
2023-04-18T12:37:59.223Z,59.17
2023-04-18T12:40:27.115Z,58.47
2023-04-18T12:42:55.051Z,59.51
2023-04-18T12:45:22.919Z,59.07
2023-04-18T12:47:51.229Z,58.83
2023-04-18T12:50:21.768Z,59.30
2023-04-18T12:52:48.891Z,58.65
2023-04-18T12:55:15.886Z,58.26
2023-04-18T12:57:43.235Z,58.28
2023-04-18T13:00:11.184Z,58.84
2023-04-18T13:02:40.296Z,59.22
2023-04-18T13:05:08.666Z,60.11
2023-04-18T13:07:37.711Z,60.21
2023-04-18T13:10:04.931Z,60.15
2023-04-18T13:12:31.605Z,60.43
2023-04-18T13:14:58.260Z,60.57
2023-04-18T13:17:25.011Z,60.92
2023-04-18T13:19:51.977Z,61.37
2023-04-18T13:22:21.804Z,61.04
2023-04-18T13:24:48.361Z,61.56
2023-04-18T13:27:15.211Z,61.69
2023-04-18T13:29:43.365Z,61.94
2023-04-18T13:32:10.091Z,61.92
2023-04-18T13:34:39.810Z,61.98
2023-04-18T13:37:06.624Z,61.24
2023-04-18T13:39:33.732Z,60.50
2023-04-18T13:42:03.118Z,59.67
2023-04-18T13:44:30.944Z,60.26
2023-04-18T13:46:58.001Z,60.38
2023-04-18T13:49:24.724Z,60.33
2023-04-18T13:51:57.529Z,59.88
2023-04-18T13:54:27.442Z,59.06
2023-04-18T13:56:54.669Z,58.39
2023-04-18T13:59:21.251Z,58.66
2023-04-18T14:01:49.259Z,59.13
2023-04-18T14:04:16.779Z,58.18
2023-04-18T14:06:43.543Z,57.93
2023-04-18T14:09:10.048Z,56.40
2023-04-18T14:11:36.618Z,55.93
2023-04-18T14:14:03.477Z,54.58
2023-04-18T14:16:32.562Z,55.25
2023-04-18T14:19:01.077Z,55.54
2023-04-18T14:21:27.902Z,54.91
2023-04-18T14:23:55.324Z,54.87
2023-04-18T14:26:22.479Z,55.16
2023-04-18T14:28:49.049Z,55.47
2023-04-18T14:31:16.347Z,56.14
2023-04-18T14:33:43.523Z,56.22
2023-04-18T14:36:10.305Z,55.71
2023-04-18T14:38:36.831Z,55.44
2023-04-18T14:41:06.688Z,55.31
2023-04-18T14:43:33.264Z,55.63
2023-04-18T14:46:00.002Z,55.15
2023-04-18T14:48:27.250Z,55.24
2023-04-18T14:50:58.138Z,55.66
2023-04-18T14:53:26.555Z,55.84
2023-04-18T14:55:53.097Z,54.90
2023-04-18T14:58:22.102Z,53.90
2023-04-18T15:00:49.216Z,53.85
2023-04-18T15:03:16.889Z,51.57
2023-04-18T15:05:46.439Z,52.16
2023-04-18T15:08:14.528Z,51.45
2023-04-18T15:10:46.612Z,50.60
2023-04-18T15:13:13.378Z,49.20
2023-04-18T15:15:39.986Z,49.11
2023-04-18T15:18:08.321Z,46.41
2023-04-18T15:20:37.223Z,46.87
2023-04-18T15:23:03.890Z,47.26
2023-04-18T15:25:31.066Z,47.30
2023-04-18T15:27:58.510Z,46.15
2023-04-18T15:30:25.581Z,46.07
2023-04-18T15:32:53.922Z,44.11
2023-04-18T15:35:20.762Z,44.14
2023-04-18T15:37:47.523Z,42.99
2023-04-18T15:40:16.242Z,43.65
2023-04-18T15:42:43.722Z,44.79
2023-04-18T15:45:11.004Z,44.37
2023-04-18T15:47:38.746Z,44.55
2023-04-18T15:50:06.049Z,45.07
2023-04-18T15:52:32.898Z,44.82
2023-04-18T15:55:00.317Z,45.24
2023-04-18T15:57:27.011Z,43.86
2023-04-18T15:59:54.009Z,43.83
2023-04-18T16:02:20.923Z,44.71
2023-04-18T16:04:47.615Z,43.42
2023-04-18T16:07:14.124Z,43.02
2023-04-18T16:09:40.597Z,44.41
2023-04-18T16:12:08.164Z,44.19
2023-04-18T16:14:34.982Z,44.11
2023-04-18T16:17:01.805Z,43.89
2023-04-18T16:19:28.475Z,41.80
2023-04-18T16:21:55.070Z,41.95
2023-04-18T16:24:21.677Z,42.97
2023-04-18T16:26:48.186Z,43.72
2023-04-18T16:29:14.880Z,44.13
2023-04-18T16:31:42.725Z,44.72
2023-04-18T16:34:09.686Z,45.09
2023-04-18T16:36:36.445Z,45.56
2023-04-18T16:39:03.029Z,46.32
2023-04-18T16:41:29.538Z,48.39
2023-04-18T16:43:56.082Z,48.32
2023-04-18T16:46:22.781Z,46.79
2023-04-18T16:48:50.477Z,47.27
2023-04-18T16:51:18.973Z,48.24
2023-04-18T16:53:46.751Z,48.87
2023-04-18T16:56:13.248Z,47.42
2023-04-18T16:58:39.757Z,47.71
2023-04-18T17:01:08.257Z,48.20
2023-04-18T17:03:35.034Z,48.60
2023-04-18T17:06:01.842Z,49.28
2023-04-18T17:08:28.983Z,49.99
2023-04-18T17:10:55.622Z,50.48
2023-04-18T17:13:26.797Z,50.05
2023-04-18T17:15:53.700Z,50.59
2023-04-18T17:18:20.384Z,51.14
2023-04-18T17:20:47.034Z,51.51
2023-04-18T17:23:14.044Z,52.08
2023-04-18T17:25:40.708Z,52.26
2023-04-18T17:28:07.239Z,52.41
2023-04-18T17:30:33.862Z,53.06
2023-04-18T17:33:00.828Z,53.58
2023-04-18T17:35:27.573Z,53.72
2023-04-18T17:37:54.128Z,53.70
2023-04-18T17:40:20.674Z,54.09
2023-04-18T17:42:48.352Z,54.02
2023-04-18T17:45:14.908Z,54.22
2023-04-18T17:47:41.499Z,54.38
2023-04-18T17:50:08.405Z,54.55
2023-04-18T17:52:35.094Z,54.70
2023-04-18T17:55:01.811Z,54.88
2023-04-18T17:57:30.438Z,55.16
2023-04-18T17:59:57.073Z,55.40
2023-04-18T18:02:24.131Z,55.45
2023-04-18T18:04:51.672Z,55.80
2023-04-18T18:07:18.454Z,55.98
2023-04-18T18:09:47.820Z,56.29
2023-04-18T18:12:14.535Z,56.05
2023-04-18T18:14:41.088Z,56.75
2023-04-18T18:17:07.755Z,56.92
2023-04-18T18:19:36.435Z,57.23
2023-04-18T18:22:03.134Z,57.30
2023-04-18T18:24:29.703Z,57.66
2023-04-18T18:26:56.853Z,57.77
2023-04-18T18:29:23.469Z,58.17
2023-04-18T18:31:50.337Z,58.39
2023-04-18T18:34:17.094Z,58.72
2023-04-18T18:36:43.646Z,58.78
2023-04-18T18:39:11.182Z,59.19
2023-04-18T18:41:37.894Z,59.39
2023-04-18T18:44:04.549Z,59.74
2023-04-18T18:46:31.217Z,59.82
2023-04-18T18:48:57.791Z,60.13
2023-04-18T18:51:24.340Z,60.46
2023-04-18T18:53:51.939Z,60.53
2023-04-18T18:56:18.420Z,61.06
2023-04-18T18:58:44.934Z,61.01
2023-04-18T19:01:11.664Z,61.28
2023-04-18T19:03:39.634Z,61.58
2023-04-18T19:06:07.405Z,61.52
2023-04-18T19:08:34.288Z,61.89
2023-04-18T19:11:00.962Z,62.33
2023-04-18T19:13:27.701Z,62.53
2023-04-18T19:15:54.370Z,62.73
2023-04-18T19:18:21.453Z,62.78
2023-04-18T19:20:50.285Z,63.31
2023-04-18T19:23:19.753Z,63.58
2023-04-18T19:25:47.097Z,63.56
2023-04-18T19:28:14.450Z,63.45
2023-04-18T19:30:42.271Z,63.87
2023-04-18T19:33:09.070Z,64.01
2023-04-18T19:35:37.958Z,64.30
2023-04-18T19:38:04.789Z,64.24
2023-04-18T19:40:31.349Z,64.35
2023-04-18T19:42:58.329Z,64.21
2023-04-18T19:45:24.941Z,64.64
2023-04-18T19:47:51.748Z,64.99
2023-04-18T19:50:18.502Z,64.93
2023-04-18T19:52:45.383Z,65.18
2023-04-18T19:55:12.058Z,65.47
2023-04-18T19:57:40.080Z,65.50
2023-04-18T20:00:11.266Z,65.84
2023-04-18T20:02:38.506Z,65.82
2023-04-18T20:05:06.421Z,66.12
2023-04-18T20:07:33.625Z,66.48
2023-04-18T20:10:00.681Z,66.35
2023-04-18T20:12:27.675Z,66.67
2023-04-18T20:14:55.176Z,66.94
2023-04-18T20:17:21.765Z,66.82
2023-04-18T20:19:49.832Z,66.93
2023-04-18T20:22:17.175Z,67.07
2023-04-18T20:24:44.971Z,67.42
2023-04-18T20:27:11.830Z,67.33
2023-04-18T20:29:38.268Z,67.48
2023-04-18T20:32:05.924Z,67.34
2023-04-18T20:34:32.688Z,67.68
2023-04-18T20:37:00.148Z,68.09
2023-04-18T20:39:28.099Z,67.80
2023-04-18T20:41:57.696Z,68.01
2023-04-18T20:44:24.980Z,68.03
2023-04-18T20:46:54.879Z,68.09
2023-04-18T20:49:21.413Z,68.67
2023-04-18T20:51:48.053Z,68.25
2023-04-18T20:54:15.084Z,68.68
2023-04-18T20:56:41.915Z,68.88
2023-04-18T20:59:08.525Z,68.68
2023-04-18T21:01:36.848Z,69.02
2023-04-18T21:04:03.878Z,68.89
2023-04-18T21:06:31.032Z,69.15
2023-04-18T21:08:57.576Z,69.14
2023-04-18T21:11:24.155Z,69.36
2023-04-18T21:13:50.891Z,69.30
2023-04-18T21:16:17.406Z,69.13
2023-04-18T21:18:43.846Z,69.58
2023-04-18T21:21:10.357Z,69.63
2023-04-18T21:23:44.469Z,69.40
2023-04-18T21:26:13.180Z,69.88
2023-04-18T21:29:00.520Z,69.73
2023-04-18T21:31:29.749Z,69.66
2023-04-18T21:33:57.886Z,69.97
2023-04-18T21:36:27.012Z,69.76
2023-04-18T21:38:54.982Z,69.87
2023-04-18T21:41:22.612Z,70.18
2023-04-18T21:43:49.656Z,70.51
2023-04-18T21:46:16.633Z,70.62
2023-04-18T21:48:45.580Z,70.39
2023-04-18T21:51:13.783Z,70.51
2023-04-18T21:53:41.158Z,70.79
2023-04-18T21:56:08.479Z,70.72
2023-04-18T21:58:35.580Z,70.94
2023-04-18T22:01:02.411Z,71.03
2023-04-18T22:03:29.604Z,71.42
2023-04-18T22:05:56.636Z,71.32
2023-04-18T22:08:25.821Z,71.54
2023-04-18T22:10:58.412Z,71.88
2023-04-18T22:13:30.068Z,71.88
2023-04-18T22:15:58.367Z,71.94
2023-04-18T22:18:25.234Z,72.01
2023-04-18T22:20:53.767Z,72.26
2023-04-18T22:23:20.748Z,72.37
2023-04-18T22:25:47.496Z,72.83
2023-04-18T22:28:14.049Z,72.83
2023-04-18T22:30:40.790Z,73.01
2023-04-18T22:33:08.372Z,73.16
2023-04-18T22:35:34.957Z,73.42
2023-04-18T22:38:01.342Z,73.58
2023-04-18T22:40:27.922Z,73.57
2023-04-18T22:42:54.542Z,73.72
2023-04-18T22:45:21.123Z,73.82
2023-04-18T22:47:47.779Z,74.21
2023-04-18T22:50:15.095Z,74.23
2023-04-18T22:52:41.790Z,74.37
2023-04-18T22:55:08.906Z,74.32
2023-04-18T22:57:35.509Z,74.31
2023-04-18T23:00:02.319Z,74.58
2023-04-18T23:02:29.043Z,74.92
2023-04-18T23:04:58.354Z,74.92
2023-04-18T23:07:24.852Z,75.15
2023-04-18T23:09:52.331Z,75.00
2023-04-18T23:12:19.127Z,75.22
2023-04-18T23:14:45.938Z,75.19
2023-04-18T23:17:12.418Z,75.86
2023-04-18T23:19:39.016Z,76.00
2023-04-18T23:22:05.913Z,75.83
2023-04-18T23:24:32.413Z,76.02
2023-04-18T23:26:58.976Z,76.22
2023-04-18T23:29:25.508Z,76.16
2023-04-18T23:31:52.261Z,76.42
2023-04-18T23:34:18.882Z,76.79
2023-04-18T23:36:45.696Z,76.70
2023-04-18T23:39:12.290Z,77.13
2023-04-18T23:41:38.757Z,77.08
2023-04-18T23:44:05.754Z,77.30
2023-04-18T23:46:32.969Z,77.21
2023-04-18T23:49:00.858Z,77.35
2023-04-18T23:51:28.108Z,77.44
2023-04-18T23:53:54.646Z,77.37
2023-04-18T23:56:23.313Z,77.74
2023-04-18T23:58:50.216Z,77.91
